sensor_id;sensor_type;location;lat;lon;timestamp;pressure;altitude;pressure_sealevel;temperature;humidity
47374;BME280;33123;50.118;10.272;2022-11-04T00:02:19;96473.78;;;12.38;75.40
47374;BME280;33123;50.118;10.272;2022-11-04T00:04:46;96480.91;;;12.38;75.77
47374;BME280;33123;50.118;10.272;2022-11-04T00:07:12;96489.34;;;12.40;75.79
47374;BME280;33123;50.118;10.272;2022-11-04T00:09:54;96487.34;;;12.51;75.15
47374;BME280;33123;50.118;10.272;2022-11-04T00:12:21;96496.81;;;12.52;75.87
47374;BME280;33123;50.118;10.272;2022-11-04T00:14:49;96494.19;;;12.52;75.25
47374;BME280;33123;50.118;10.272;2022-11-04T00:17:16;96504.81;;;12.47;76.25
47374;BME280;33123;50.118;10.272;2022-11-04T00:19:44;96510.34;;;12.50;75.98
47374;BME280;33123;50.118;10.272;2022-11-04T00:22:41;96516.78;;;12.44;76.32
47374;BME280;33123;50.118;10.272;2022-11-04T00:25:27;96523.88;;;12.43;76.48
47374;BME280;33123;50.118;10.272;2022-11-04T00:28:13;96531.03;;;12.43;76.86
47374;BME280;33123;50.118;10.272;2022-11-04T00:31:17;96530.75;;;12.45;76.62
47374;BME280;33123;50.118;10.272;2022-11-04T00:34:01;96534.81;;;12.18;77.89
47374;BME280;33123;50.118;10.272;2022-11-04T00:36:27;96538.75;;;12.39;77.33
47374;BME280;33123;50.118;10.272;2022-11-04T00:38:54;96537.38;;;12.23;78.29
47374;BME280;33123;50.118;10.272;2022-11-04T00:41:22;96525.69;;;12.29;77.93
47374;BME280;33123;50.118;10.272;2022-11-04T00:43:51;96520.16;;;12.26;77.89
47374;BME280;33123;50.118;10.272;2022-11-04T00:46:18;96511.75;;;12.24;78.36
47374;BME280;33123;50.118;10.272;2022-11-04T00:48:44;96519.19;;;12.22;78.46
47374;BME280;33123;50.118;10.272;2022-11-04T00:54:32;96539.31;;;12.18;78.97
47374;BME280;33123;50.118;10.272;2022-11-04T00:57:00;96530.25;;;12.24;78.97
47374;BME280;33123;50.118;10.272;2022-11-04T00:59:27;96518.53;;;12.11;79.27
47374;BME280;33123;50.118;10.272;2022-11-04T01:05:15;96502.19;;;12.28;78.71
47374;BME280;33123;50.118;10.272;2022-11-04T01:07:41;96508.81;;;12.25;79.18
47374;BME280;33123;50.118;10.272;2022-11-04T01:10:08;96521.38;;;12.14;79.37
47374;BME280;33123;50.118;10.272;2022-11-04T01:12:36;96521.31;;;12.20;79.42
47374;BME280;33123;50.118;10.272;2022-11-04T01:15:04;96514.09;;;12.25;79.21
47374;BME280;33123;50.118;10.272;2022-11-04T01:17:30;96512.78;;;12.28;79.08
47374;BME280;33123;50.118;10.272;2022-11-04T01:19:57;96520.53;;;12.19;79.46
47374;BME280;33123;50.118;10.272;2022-11-04T01:22:23;96525.69;;;12.10;79.94
47374;BME280;33123;50.118;10.272;2022-11-04T01:24:50;96524.91;;;12.29;79.46
47374;BME280;33123;50.118;10.272;2022-11-04T01:27:17;96527.75;;;12.32;79.37
47374;BME280;33123;50.118;10.272;2022-11-04T01:29:45;96533.75;;;12.38;79.31
47374;BME280;33123;50.118;10.272;2022-11-04T01:32:11;96537.53;;;12.32;79.40
47374;BME280;33123;50.118;10.272;2022-11-04T01:34:38;96544.47;;;12.28;79.37
47374;BME280;33123;50.118;10.272;2022-11-04T01:37:04;96538.03;;;12.34;79.81
47374;BME280;33123;50.118;10.272;2022-11-04T01:39:31;96532.31;;;12.08;80.57
47374;BME280;33123;50.118;10.272;2022-11-04T01:41:58;96538.97;;;12.24;80.23
47374;BME280;33123;50.118;10.272;2022-11-04T01:44:48;96542.31;;;12.30;79.94
47374;BME280;33123;50.118;10.272;2022-11-04T01:47:16;96540.41;;;12.35;79.38
47374;BME280;33123;50.118;10.272;2022-11-04T01:49:46;96540.03;;;12.23;79.58
47374;BME280;33123;50.118;10.272;2022-11-04T01:52:17;96547.84;;;12.33;79.36
47374;BME280;33123;50.118;10.272;2022-11-04T01:54:47;96553.91;;;12.10;80.13
47374;BME280;33123;50.118;10.272;2022-11-04T01:57:18;96554.25;;;12.27;79.64
47374;BME280;33123;50.118;10.272;2022-11-04T01:59:45;96557.75;;;12.41;79.05
47374;BME280;33123;50.118;10.272;2022-11-04T02:02:14;96555.25;;;12.31;79.64
47374;BME280;33123;50.118;10.272;2022-11-04T02:04:41;96565.03;;;12.31;79.43
47374;BME280;33123;50.118;10.272;2022-11-04T02:07:09;96566.47;;;12.42;79.06
47374;BME280;33123;50.118;10.272;2022-11-04T02:09:39;96558.53;;;12.42;78.92
47374;BME280;33123;50.118;10.272;2022-11-04T02:12:06;96561.97;;;12.42;78.82
47374;BME280;33123;50.118;10.272;2022-11-04T02:14:50;96555.81;;;12.47;78.65
47374;BME280;33123;50.118;10.272;2022-11-04T02:17:29;96555.75;;;12.52;78.44
47374;BME280;33123;50.118;10.272;2022-11-04T02:20:18;96560.47;;;12.55;78.37
47374;BME280;33123;50.118;10.272;2022-11-04T02:26:23;96567.59;;;12.36;79.16
47374;BME280;33123;50.118;10.272;2022-11-04T02:29:13;96569.88;;;12.42;78.51
47374;BME280;33123;50.118;10.272;2022-11-04T02:31:47;96568.59;;;12.40;78.53
47374;BME280;33123;50.118;10.272;2022-11-04T02:34:20;96578.59;;;12.43;78.41
47374;BME280;33123;50.118;10.272;2022-11-04T02:36:55;96574.38;;;12.42;78.14
47374;BME280;33123;50.118;10.272;2022-11-04T02:39:31;96570.53;;;12.53;77.63
47374;BME280;33123;50.118;10.272;2022-11-04T02:42:04;96566.88;;;12.49;77.37
47374;BME280;33123;50.118;10.272;2022-11-04T02:44:36;96566.16;;;12.43;77.74
47374;BME280;33123;50.118;10.272;2022-11-04T02:47:05;96570.09;;;12.46;77.58
47374;BME280;33123;50.118;10.272;2022-11-04T02:49:37;96566.75;;;12.40;78.23
47374;BME280;33123;50.118;10.272;2022-11-04T02:52:07;96568.03;;;12.43;77.64
47374;BME280;33123;50.118;10.272;2022-11-04T02:54:37;96572.09;;;12.54;77.45
47374;BME280;33123;50.118;10.272;2022-11-04T02:57:10;96568.97;;;12.52;77.13
47374;BME280;33123;50.118;10.272;2022-11-04T02:59:45;96566.09;;;12.49;77.30
47374;BME280;33123;50.118;10.272;2022-11-04T03:02:15;96570.81;;;12.52;77.19
47374;BME280;33123;50.118;10.272;2022-11-04T03:04:46;96566.69;;;12.46;77.10
47374;BME280;33123;50.118;10.272;2022-11-04T03:07:21;96575.47;;;12.41;77.33
47374;BME280;33123;50.118;10.272;2022-11-04T03:09:52;96577.63;;;12.39;78.10
47374;BME280;33123;50.118;10.272;2022-11-04T03:12:26;96580.31;;;12.34;77.72
47374;BME280;33123;50.118;10.272;2022-11-04T03:15:00;96581.31;;;12.38;77.63
47374;BME280;33123;50.118;10.272;2022-11-04T03:17:31;96584.47;;;12.40;77.79
47374;BME280;33123;50.118;10.272;2022-11-04T03:20:05;96587.88;;;12.40;77.50
47374;BME280;33123;50.118;10.272;2022-11-04T03:22:34;96585.31;;;12.35;77.90
47374;BME280;33123;50.118;10.272;2022-11-04T03:25:03;96592.38;;;12.40;77.22
47374;BME280;33123;50.118;10.272;2022-11-04T03:27:34;96599.88;;;12.33;77.49
47374;BME280;33123;50.118;10.272;2022-11-04T03:30:10;96609.25;;;12.44;77.15
47374;BME280;33123;50.118;10.272;2022-11-04T03:32:41;96616.59;;;12.47;76.88
47374;BME280;33123;50.118;10.272;2022-11-04T03:35:13;96611.81;;;12.49;76.80
47374;BME280;33123;50.118;10.272;2022-11-04T03:37:41;96611.31;;;12.47;77.05
47374;BME280;33123;50.118;10.272;2022-11-04T03:40:09;96617.75;;;12.41;77.25
47374;BME280;33123;50.118;10.272;2022-11-04T03:42:39;96611.38;;;12.42;76.78
47374;BME280;33123;50.118;10.272;2022-11-04T03:45:10;96603.09;;;12.49;76.82
47374;BME280;33123;50.118;10.272;2022-11-04T03:47:38;96609.09;;;12.35;77.43
47374;BME280;33123;50.118;10.272;2022-11-04T03:50:08;96608.31;;;12.35;77.03
47374;BME280;33123;50.118;10.272;2022-11-04T03:52:36;96608.00;;;12.18;77.88
47374;BME280;33123;50.118;10.272;2022-11-04T03:55:04;96606.16;;;12.37;77.15
47374;BME280;33123;50.118;10.272;2022-11-04T03:57:43;96597.16;;;12.38;76.63
47374;BME280;33123;50.118;10.272;2022-11-04T04:00:15;96609.94;;;12.31;76.99
47374;BME280;33123;50.118;10.272;2022-11-04T04:02:54;96604.81;;;12.39;76.87
47374;BME280;33123;50.118;10.272;2022-11-04T04:05:26;96608.25;;;12.40;76.69
47374;BME280;33123;50.118;10.272;2022-11-04T04:08:00;96617.31;;;12.34;76.73
47374;BME280;33123;50.118;10.272;2022-11-04T04:10:35;96625.16;;;12.39;76.61
47374;BME280;33123;50.118;10.272;2022-11-04T04:13:11;96630.97;;;12.17;77.56
47374;BME280;33123;50.118;10.272;2022-11-04T04:15:46;96653.22;;;12.35;77.30
47374;BME280;33123;50.118;10.272;2022-11-04T04:18:19;96652.94;;;12.36;77.39
47374;BME280;33123;50.118;10.272;2022-11-04T04:20:51;96651.00;;;12.42;76.79
47374;BME280;33123;50.118;10.272;2022-11-04T04:23:23;96655.81;;;12.40;76.92
47374;BME280;33123;50.118;10.272;2022-11-04T04:26:09;96649.72;;;12.15;77.34
47374;BME280;33123;50.118;10.272;2022-11-04T04:28:56;96643.84;;;12.24;76.92
47374;BME280;33123;50.118;10.272;2022-11-04T04:31:27;96637.66;;;12.33;76.66
47374;BME280;33123;50.118;10.272;2022-11-04T04:34:13;96635.81;;;12.34;76.37
47374;BME280;33123;50.118;10.272;2022-11-04T04:36:44;96643.34;;;12.22;76.20
47374;BME280;33123;50.118;10.272;2022-11-04T04:39:13;96651.91;;;12.32;75.64
47374;BME280;33123;50.118;10.272;2022-11-04T04:42:15;96642.94;;;12.33;75.35
47374;BME280;33123;50.118;10.272;2022-11-04T04:45:09;96631.06;;;12.31;75.23
47374;BME280;33123;50.118;10.272;2022-11-04T04:47:41;96639.00;;;12.31;75.07
47374;BME280;33123;50.118;10.272;2022-11-04T04:50:09;96646.91;;;12.31;75.32
47374;BME280;33123;50.118;10.272;2022-11-04T04:52:38;96649.69;;;12.21;75.93
47374;BME280;33123;50.118;10.272;2022-11-04T04:55:05;96647.09;;;12.15;76.14
47374;BME280;33123;50.118;10.272;2022-11-04T04:57:32;96653.84;;;12.03;76.29
47374;BME280;33123;50.118;10.272;2022-11-04T04:59:59;96648.44;;;12.13;75.97
47374;BME280;33123;50.118;10.272;2022-11-04T05:02:49;96642.94;;;12.09;76.14
47374;BME280;33123;50.118;10.272;2022-11-04T05:05:16;96616.47;;;11.91;75.98
47374;BME280;33123;50.118;10.272;2022-11-04T05:07:43;96647.66;;;12.12;75.86
47374;BME280;33123;50.118;10.272;2022-11-04T05:10:11;96655.47;;;11.99;75.73
47374;BME280;33123;50.118;10.272;2022-11-04T05:12:39;96651.38;;;12.11;75.65
47374;BME280;33123;50.118;10.272;2022-11-04T05:15:24;96632.28;;;11.96;75.55
47374;BME280;33123;50.118;10.272;2022-11-04T05:17:54;96651.94;;;12.08;74.93
47374;BME280;33123;50.118;10.272;2022-11-04T05:20:22;96657.78;;;12.05;75.16
47374;BME280;33123;50.118;10.272;2022-11-04T05:22:48;96662.53;;;12.03;75.13
47374;BME280;33123;50.118;10.272;2022-11-04T05:25:15;96666.81;;;11.99;74.89
47374;BME280;33123;50.118;10.272;2022-11-04T05:27:42;96662.53;;;12.03;74.75
47374;BME280;33123;50.118;10.272;2022-11-04T05:30:09;96656.72;;;12.06;74.86
47374;BME280;33123;50.118;10.272;2022-11-04T05:32:36;96653.06;;;12.02;74.10
47374;BME280;33123;50.118;10.272;2022-11-04T05:35:05;96657.78;;;12.05;73.86
47374;BME280;33123;50.118;10.272;2022-11-04T05:37:32;96663.63;;;12.02;73.99
47374;BME280;33123;50.118;10.272;2022-11-04T05:39:58;96662.84;;;12.02;73.35
47374;BME280;33123;50.118;10.272;2022-11-04T05:42:25;96659.94;;;11.98;73.44
47374;BME280;33123;50.118;10.272;2022-11-04T05:44:51;96662.16;;;11.91;73.18
47374;BME280;33123;50.118;10.272;2022-11-04T05:47:18;96675.84;;;11.93;73.42
47374;BME280;33123;50.118;10.272;2022-11-04T05:49:45;96675.41;;;11.86;73.33
47374;BME280;33123;50.118;10.272;2022-11-04T05:52:13;96670.13;;;11.86;73.18
47374;BME280;33123;50.118;10.272;2022-11-04T05:54:39;96670.41;;;11.84;73.77
47374;BME280;33123;50.118;10.272;2022-11-04T05:57:06;96673.06;;;11.79;73.54
47374;BME280;33123;50.118;10.272;2022-11-04T05:59:32;96675.44;;;11.76;73.55
47374;BME280;33123;50.118;10.272;2022-11-04T06:01:59;96680.72;;;11.76;73.93
47374;BME280;33123;50.118;10.272;2022-11-04T06:04:25;96676.53;;;11.75;73.84
47374;BME280;33123;50.118;10.272;2022-11-04T06:06:52;96663.09;;;11.71;73.71
47374;BME280;33123;50.118;10.272;2022-11-04T06:09:20;96668.09;;;11.73;73.87
47374;BME280;33123;50.118;10.272;2022-11-04T06:12:04;96667.38;;;11.67;73.41
47374;BME280;33123;50.118;10.272;2022-11-04T06:14:30;96664.53;;;11.58;73.46
47374;BME280;33123;50.118;10.272;2022-11-04T06:16:57;96671.63;;;11.63;73.24
47374;BME280;33123;50.118;10.272;2022-11-04T06:19:25;96674.78;;;11.60;73.33
47374;BME280;33123;50.118;10.272;2022-11-04T06:21:51;96681.94;;;11.59;73.56
47374;BME280;33123;50.118;10.272;2022-11-04T06:24:19;96690.41;;;11.56;73.19
47374;BME280;33123;50.118;10.272;2022-11-04T06:26:46;96686.75;;;11.52;72.99
47374;BME280;33123;50.118;10.272;2022-11-04T06:29:12;96694.94;;;11.51;73.21
47374;BME280;33123;50.118;10.272;2022-11-04T06:31:39;96694.69;;;11.47;72.98
47374;BME280;33123;50.118;10.272;2022-11-04T06:34:05;96700.75;;;11.48;73.35
47374;BME280;33123;50.118;10.272;2022-11-04T06:36:32;96691.56;;;11.45;73.35
47374;BME280;33123;50.118;10.272;2022-11-04T06:38:58;96694.44;;;11.44;73.28
47374;BME280;33123;50.118;10.272;2022-11-04T06:41:26;96700.53;;;11.44;73.65
47374;BME280;33123;50.118;10.272;2022-11-04T06:43:53;96698.16;;;11.43;73.77
47374;BME280;33123;50.118;10.272;2022-11-04T06:46:25;96695.03;;;11.41;74.07
47374;BME280;33123;50.118;10.272;2022-11-04T06:48:52;96694.22;;;11.40;74.09
47374;BME280;33123;50.118;10.272;2022-11-04T06:51:20;96696.34;;;11.38;73.85
47374;BME280;33123;50.118;10.272;2022-11-04T06:53:46;96703.75;;;11.36;74.14
47374;BME280;33123;50.118;10.272;2022-11-04T06:56:13;96722.22;;;11.36;73.85
47374;BME280;33123;50.118;10.272;2022-11-04T06:58:41;96744.38;;;11.35;73.50
47374;BME280;33123;50.118;10.272;2022-11-04T07:01:08;96759.97;;;11.31;73.31
47374;BME280;33123;50.118;10.272;2022-11-04T07:03:34;96779.25;;;11.27;73.95
47374;BME280;33123;50.118;10.272;2022-11-04T07:06:05;96775.56;;;11.28;73.72
47374;BME280;33123;50.118;10.272;2022-11-04T07:08:32;96775.00;;;11.31;73.45
47374;BME280;33123;50.118;10.272;2022-11-04T07:10:58;96745.06;;;11.12;73.40
47374;BME280;33123;50.118;10.272;2022-11-04T07:13:25;96782.41;;;11.29;73.74
47374;BME280;33123;50.118;10.272;2022-11-04T07:15:53;96797.16;;;11.35;73.78
47374;BME280;33123;50.118;10.272;2022-11-04T07:18:20;96796.09;;;11.36;74.05
47374;BME280;33123;50.118;10.272;2022-11-04T07:20:46;96793.44;;;11.36;74.02
47374;BME280;33123;50.118;10.272;2022-11-04T07:23:13;96805.06;;;11.35;73.69
47374;BME280;33123;50.118;10.272;2022-11-04T07:25:43;96799.81;;;11.30;73.48
47374;BME280;33123;50.118;10.272;2022-11-04T07:28:10;96794.81;;;11.28;73.54
47374;BME280;33123;50.118;10.272;2022-11-04T07:34:00;96795.06;;;11.27;74.22
47374;BME280;33123;50.118;10.272;2022-11-04T07:36:27;96795.88;;;11.27;74.18
47374;BME280;33123;50.118;10.272;2022-11-04T07:38:54;96795.06;;;11.27;74.54
47374;BME280;33123;50.118;10.272;2022-11-04T07:41:21;96786.66;;;11.25;74.06
47374;BME280;33123;50.118;10.272;2022-11-04T07:43:48;96775.09;;;11.16;73.97
47374;BME280;33123;50.118;10.272;2022-11-04T07:46:15;96798.25;;;11.29;73.97
47374;BME280;33123;50.118;10.272;2022-11-04T07:48:42;96785.06;;;11.29;73.82
47374;BME280;33123;50.118;10.272;2022-11-04T07:51:12;96756.63;;;11.16;73.83
47374;BME280;33123;50.118;10.272;2022-11-04T07:53:41;96781.31;;;11.35;74.29
47374;BME280;33123;50.118;10.272;2022-11-04T07:56:09;96765.47;;;11.40;74.27
47374;BME280;33123;50.118;10.272;2022-11-04T07:58:36;96759.66;;;11.38;73.89
47374;BME280;33123;50.118;10.272;2022-11-04T08:01:06;96757.56;;;11.40;74.00
47374;BME280;33123;50.118;10.272;2022-11-04T08:03:35;96747.78;;;11.41;74.04
47374;BME280;33123;50.118;10.272;2022-11-04T08:06:03;96742.75;;;11.44;74.12
47374;BME280;33123;50.118;10.272;2022-11-04T08:08:32;96747.47;;;11.47;74.45
47374;BME280;33123;50.118;10.272;2022-11-04T08:11:01;96747.94;;;11.54;74.71
47374;BME280;33123;50.118;10.272;2022-11-04T08:13:28;96749.50;;;11.60;74.94
47374;BME280;33123;50.118;10.272;2022-11-04T08:15:59;96746.75;;;11.71;75.27
47374;BME280;33123;50.118;10.272;2022-11-04T08:18:26;96743.53;;;11.79;74.87
47374;BME280;33123;50.118;10.272;2022-11-04T08:20:53;96740.63;;;11.85;74.44
47374;BME280;33123;50.118;10.272;2022-11-04T08:23:20;96741.06;;;11.93;73.44
47374;BME280;33123;50.118;10.272;2022-11-04T08:25:48;96737.31;;;11.99;73.13
47374;BME280;33123;50.118;10.272;2022-11-04T08:28:15;96738.59;;;12.06;72.60
47374;BME280;33123;50.118;10.272;2022-11-04T08:30:51;96733.75;;;12.13;71.71
47374;BME280;33123;50.118;10.272;2022-11-04T08:33:18;96739.28;;;12.17;71.89
47374;BME280;33123;50.118;10.272;2022-11-04T08:35:44;96745.06;;;12.19;71.79
47374;BME280;33123;50.118;10.272;2022-11-04T08:38:11;96745.25;;;12.28;71.53
47374;BME280;33123;50.118;10.272;2022-11-04T08:40:37;96737.81;;;12.30;71.26
47374;BME280;33123;50.118;10.272;2022-11-04T08:43:05;96743.59;;;12.32;70.77
47374;BME280;33123;50.118;10.272;2022-11-04T08:45:33;96753.13;;;12.33;70.13
47374;BME280;33123;50.118;10.272;2022-11-04T08:47:59;96754.69;;;12.34;69.73
47374;BME280;33123;50.118;10.272;2022-11-04T08:50:28;96763.69;;;12.33;69.77
47374;BME280;33123;50.118;10.272;2022-11-04T08:52:56;96775.84;;;12.34;70.39
47374;BME280;33123;50.118;10.272;2022-11-04T08:55:22;96782.97;;;12.33;69.36
47374;BME280;33123;50.118;10.272;2022-11-04T08:57:49;96783.22;;;12.32;69.04
47374;BME280;33123;50.118;10.272;2022-11-04T09:00:17;96793.03;;;12.31;69.27
47374;BME280;33123;50.118;10.272;2022-11-04T09:02:44;96803.91;;;12.25;69.03
47374;BME280;33123;50.118;10.272;2022-11-04T09:05:10;96807.88;;;12.27;69.00
47374;BME280;33123;50.118;10.272;2022-11-04T09:07:38;96806.06;;;12.23;68.55
47374;BME280;33123;50.118;10.272;2022-11-04T09:10:05;96800.19;;;12.26;68.71
47374;BME280;33123;50.118;10.272;2022-11-04T09:12:32;96797.53;;;12.31;69.09
47374;BME280;33123;50.118;10.272;2022-11-04T09:14:59;96801.28;;;12.25;69.24
47374;BME280;33123;50.118;10.272;2022-11-04T09:17:27;96804.94;;;12.29;68.74
47374;BME280;33123;50.118;10.272;2022-11-04T09:19:53;96809.66;;;12.32;69.09
47374;BME280;33123;50.118;10.272;2022-11-04T09:22:20;96812.03;;;12.33;68.87
47374;BME280;33123;50.118;10.272;2022-11-04T09:24:46;96812.25;;;12.37;68.22
47374;BME280;33123;50.118;10.272;2022-11-04T09:27:13;96801.16;;;12.40;67.95
47374;BME280;33123;50.118;10.272;2022-11-04T09:29:40;96804.22;;;12.47;67.31
47374;BME280;33123;50.118;10.272;2022-11-04T09:32:07;96799.53;;;12.44;67.41
47374;BME280;33123;50.118;10.272;2022-11-04T09:34:35;96797.88;;;12.48;67.32
47374;BME280;33123;50.118;10.272;2022-11-04T09:37:02;96802.63;;;12.51;67.83
47374;BME280;33123;50.118;10.272;2022-11-04T09:39:28;96798.56;;;12.59;68.12
47374;BME280;33123;50.118;10.272;2022-11-04T09:42:12;96794.53;;;12.66;67.30
47374;BME280;33123;50.118;10.272;2022-11-04T09:44:48;96795.53;;;12.71;66.67
47374;BME280;33123;50.118;10.272;2022-11-04T09:47:17;96798.75;;;12.67;66.48
47374;BME280;33123;50.118;10.272;2022-11-04T09:49:50;96797.00;;;12.82;66.68
47374;BME280;33123;50.118;10.272;2022-11-04T09:52:22;96799.56;;;12.87;66.86
47374;BME280;33123;50.118;10.272;2022-11-04T09:54:53;96798.63;;;13.02;66.43
47374;BME280;33123;50.118;10.272;2022-11-04T09:57:22;96795.25;;;12.96;65.09
47374;BME280;33123;50.118;10.272;2022-11-04T09:59:49;96806.22;;;13.08;64.90
47374;BME280;33123;50.118;10.272;2022-11-04T10:02:32;96806.09;;;13.18;64.80
47374;BME280;33123;50.118;10.272;2022-11-04T10:05:15;96799.31;;;13.31;64.38
47374;BME280;33123;50.118;10.272;2022-11-04T10:08:15;96802.19;;;13.35;64.64
47374;BME280;33123;50.118;10.272;2022-11-04T10:10:53;96797.03;;;13.43;64.44
47374;BME280;33123;50.118;10.272;2022-11-04T10:13:30;96794.97;;;13.59;63.94
47374;BME280;33123;50.118;10.272;2022-11-04T10:18:54;96792.50;;;13.82;62.87
47374;BME280;33123;50.118;10.272;2022-11-04T10:21:35;96788.19;;;13.72;62.81
47374;BME280;33123;50.118;10.272;2022-11-04T10:24:15;96777.63;;;13.86;64.87
47374;BME280;33123;50.118;10.272;2022-11-04T10:26:44;96774.69;;;13.87;63.25
47374;BME280;33123;50.118;10.272;2022-11-04T10:29:13;96770.09;;;13.60;62.00
47374;BME280;33123;50.118;10.272;2022-11-04T10:31:42;96771.09;;;13.97;62.58
47374;BME280;33123;50.118;10.272;2022-11-04T10:34:16;96764.16;;;14.15;63.05
47374;BME280;33123;50.118;10.272;2022-11-04T10:36:48;96762.03;;;14.31;62.96
47374;BME280;33123;50.118;10.272;2022-11-04T10:39:22;96766.59;;;14.44;61.36
47374;BME280;33123;50.118;10.272;2022-11-04T10:41:51;96759.91;;;14.46;60.39
47374;BME280;33123;50.118;10.272;2022-11-04T10:44:21;96758.31;;;14.32;60.45
47374;BME280;33123;50.118;10.272;2022-11-04T10:46:56;96755.28;;;14.38;61.11
47374;BME280;33123;50.118;10.272;2022-11-04T10:49:48;96757.13;;;14.38;61.22
47374;BME280;33123;50.118;10.272;2022-11-04T10:52:21;96758.53;;;14.49;61.07
47374;BME280;33123;50.118;10.272;2022-11-04T10:54:48;96766.88;;;14.42;60.49
47374;BME280;33123;50.118;10.272;2022-11-04T10:57:17;96767.00;;;14.51;60.48
47374;BME280;33123;50.118;10.272;2022-11-04T10:59:50;96756.97;;;14.48;60.10
47374;BME280;33123;50.118;10.272;2022-11-04T11:02:41;96749.44;;;14.55;60.68
47374;BME280;33123;50.118;10.272;2022-11-04T11:05:18;96762.09;;;14.58;60.29
47374;BME280;33123;50.118;10.272;2022-11-04T11:07:50;96764.09;;;14.66;59.80
47374;BME280;33123;50.118;10.272;2022-11-04T11:10:19;96767.00;;;14.51;59.18
47374;BME280;33123;50.118;10.272;2022-11-04T11:12:51;96767.78;;;14.65;60.83
47374;BME280;33123;50.118;10.272;2022-11-04T11:15:27;96772.13;;;14.75;61.31
47374;BME280;33123;50.118;10.272;2022-11-04T11:18:00;96760.94;;;14.78;60.44
47374;BME280;33123;50.118;10.272;2022-11-04T11:20:29;96762.81;;;14.77;58.25
47374;BME280;33123;50.118;10.272;2022-11-04T11:23:00;96756.41;;;14.78;58.86
47374;BME280;33123;50.118;10.272;2022-11-04T11:25:31;96767.78;;;14.65;57.76
47374;BME280;33123;50.118;10.272;2022-11-04T11:28:00;96765.84;;;14.57;57.90
47374;BME280;33123;50.118;10.272;2022-11-04T11:30:29;96763.28;;;14.52;58.60
47374;BME280;33123;50.118;10.272;2022-11-04T11:33:00;96776.53;;;14.52;58.48
47374;BME280;33123;50.118;10.272;2022-11-04T11:35:33;96772.00;;;14.52;58.48
47374;BME280;33123;50.118;10.272;2022-11-04T11:38:15;96766.91;;;14.56;59.39
47374;BME280;33123;50.118;10.272;2022-11-04T11:40:45;96762.00;;;14.63;58.21
47374;BME280;33123;50.118;10.272;2022-11-04T11:43:21;96762.38;;;14.70;58.66
47374;BME280;33123;50.118;10.272;2022-11-04T11:45:50;96761.09;;;14.82;57.61
47374;BME280;33123;50.118;10.272;2022-11-04T11:48:30;96759.94;;;14.74;57.30
47374;BME280;33123;50.118;10.272;2022-11-04T11:50:58;96765.44;;;14.77;57.49
47374;BME280;33123;50.118;10.272;2022-11-04T11:53:28;96763.00;;;14.67;57.23
47374;BME280;33123;50.118;10.272;2022-11-04T11:56:05;96762.16;;;14.39;57.91
47374;BME280;33123;50.118;10.272;2022-11-04T11:58:42;96757.34;;;14.41;57.79
47374;BME280;33123;50.118;10.272;2022-11-04T12:01:15;96757.78;;;14.62;57.27
47374;BME280;33123;50.118;10.272;2022-11-04T12:03:45;96753.44;;;14.80;58.36
47374;BME280;33123;50.118;10.272;2022-11-04T12:06:23;96737.53;;;14.94;57.01
47374;BME280;33123;50.118;10.272;2022-11-04T12:09:10;96741.97;;;15.21;56.08
47374;BME280;33123;50.118;10.272;2022-11-04T12:11:46;96732.03;;;15.26;56.60
47374;BME280;33123;50.118;10.272;2022-11-04T12:14:23;96730.63;;;15.43;57.26
47374;BME280;33123;50.118;10.272;2022-11-04T12:16:59;96726.91;;;15.44;53.59
47374;BME280;33123;50.118;10.272;2022-11-04T12:19:42;96726.66;;;15.76;54.93
47374;BME280;33123;50.118;10.272;2022-11-04T12:22:16;96727.75;;;15.75;54.58
47374;BME280;33123;50.118;10.272;2022-11-04T12:24:54;96729.63;;;15.97;54.08
47374;BME280;33123;50.118;10.272;2022-11-04T12:27:31;96719.53;;;16.08;53.34
47374;BME280;33123;50.118;10.272;2022-11-04T12:30:06;96722.88;;;16.22;54.59
47374;BME280;33123;50.118;10.272;2022-11-04T12:32:58;96728.34;;;16.26;53.54
47374;BME280;33123;50.118;10.272;2022-11-04T12:35:39;96723.69;;;16.31;52.61
47374;BME280;33123;50.118;10.272;2022-11-04T12:38:20;96728.88;;;16.36;51.67
47374;BME280;33123;50.118;10.272;2022-11-04T12:41:02;96734.69;;;16.39;52.09
47374;BME280;33123;50.118;10.272;2022-11-04T12:43:37;96734.91;;;16.51;55.09
47374;BME280;33123;50.118;10.272;2022-11-04T12:46:11;96744.50;;;16.69;53.98
47374;BME280;33123;50.118;10.272;2022-11-04T12:49:02;96740.34;;;16.77;53.18
47374;BME280;33123;50.118;10.272;2022-11-04T12:51:39;96746.44;;;16.77;49.75
47374;BME280;33123;50.118;10.272;2022-11-04T12:54:25;96748.56;;;16.67;49.66
47374;BME280;33123;50.118;10.272;2022-11-04T12:57:17;96754.28;;;16.51;49.99
47374;BME280;33123;50.118;10.272;2022-11-04T13:02:42;96757.47;;;16.31;52.35
47374;BME280;33123;50.118;10.272;2022-11-04T13:05:21;96752.78;;;16.28;50.98
47374;BME280;33123;50.118;10.272;2022-11-04T13:07:53;96759.69;;;16.37;52.73
47374;BME280;33123;50.118;10.272;2022-11-04T13:10:26;96760.19;;;16.40;51.70
47374;BME280;33123;50.118;10.272;2022-11-04T13:13:00;96758.63;;;16.39;51.74
47374;BME280;33123;50.118;10.272;2022-11-04T13:15:30;96759.69;;;16.37;50.28
47374;BME280;33123;50.118;10.272;2022-11-04T13:18:02;96765.75;;;16.29;49.16
47374;BME280;33123;50.118;10.272;2022-11-04T13:20:33;96771.97;;;16.16;49.63
47374;BME280;33123;50.118;10.272;2022-11-04T13:23:06;96776.91;;;16.09;50.78
47374;BME280;33123;50.118;10.272;2022-11-04T13:25:39;96772.09;;;15.89;51.17
47374;BME280;33123;50.118;10.272;2022-11-04T13:28:10;96774.81;;;15.75;50.75
47374;BME280;33123;50.118;10.272;2022-11-04T13:30:42;96784.16;;;15.58;51.07
47374;BME280;33123;50.118;10.272;2022-11-04T13:33:16;96783.81;;;15.51;51.74